createdAt,value
2022-12-29T00:00:08.435Z,85.71
2022-12-29T00:00:18.774Z,85.71
2022-12-29T00:00:29.139Z,85.71
2022-12-29T00:00:39.464Z,85.71
2022-12-29T00:00:49.825Z,85.71
2022-12-29T00:01:00.189Z,85.60
2022-12-29T00:01:10.521Z,85.60
2022-12-29T00:01:20.783Z,85.60
2022-12-29T00:01:31.050Z,85.60
2022-12-29T00:01:41.321Z,85.50
2022-12-29T00:01:51.583Z,85.50
2022-12-29T00:02:01.838Z,85.50
2022-12-29T00:02:12.132Z,85.60
2022-12-29T00:02:22.410Z,85.60
2022-12-29T00:02:32.713Z,85.60
2022-12-29T00:02:43.096Z,85.60
2022-12-29T00:02:53.273Z,85.60
2022-12-29T00:03:03.685Z,85.50
2022-12-29T00:03:13.983Z,85.50
2022-12-29T00:03:24.209Z,85.50
2022-12-29T00:03:34.471Z,85.50
2022-12-29T00:03:44.764Z,85.39
2022-12-29T00:03:55.082Z,85.39
2022-12-29T00:04:08.758Z,85.39
2022-12-29T00:04:16.520Z,85.39
2022-12-29T00:04:25.684Z,85.39
2022-12-29T00:04:35.943Z,85.50
2022-12-29T00:04:46.274Z,85.50
2022-12-29T00:04:56.518Z,85.50
2022-12-29T00:05:06.802Z,85.39
2022-12-29T00:05:17.089Z,85.39
2022-12-29T00:05:27.323Z,85.39
2022-12-29T00:05:37.627Z,85.39
2022-12-29T00:05:47.886Z,85.39
2022-12-29T00:05:58.150Z,85.39
2022-12-29T00:06:08.428Z,85.39
2022-12-29T00:06:18.717Z,85.39
2022-12-29T00:06:28.972Z,85.30
2022-12-29T00:06:39.239Z,85.30
2022-12-29T00:06:49.508Z,85.30
2022-12-29T00:06:59.835Z,85.30
2022-12-29T00:07:10.074Z,85.30
2022-12-29T00:07:20.323Z,85.30
2022-12-29T00:07:30.593Z,85.30
2022-12-29T00:07:40.880Z,85.30
2022-12-29T00:07:51.120Z,85.30
2022-12-29T00:08:01.405Z,85.30
2022-12-29T00:08:11.657Z,85.30
2022-12-29T00:08:21.919Z,85.39
2022-12-29T00:08:32.183Z,85.50
2022-12-29T00:08:42.457Z,85.50
2022-12-29T00:08:52.731Z,85.50
2022-12-29T00:09:02.996Z,85.50
2022-12-29T00:09:13.260Z,85.39
2022-12-29T00:09:23.569Z,85.39
2022-12-29T00:09:33.825Z,85.39
2022-12-29T00:09:44.094Z,85.39
2022-12-29T00:09:54.355Z,85.39
2022-12-29T00:10:04.627Z,85.39
2022-12-29T00:10:14.924Z,85.50
2022-12-29T00:10:25.151Z,85.60
2022-12-29T00:10:35.464Z,85.60
2022-12-29T00:10:45.701Z,85.60
2022-12-29T00:10:55.958Z,85.60
2022-12-29T00:11:06.216Z,85.71
2022-12-29T00:11:16.494Z,85.60
2022-12-29T00:11:26.773Z,85.60
2022-12-29T00:11:37.018Z,85.60
2022-12-29T00:11:47.283Z,85.60
2022-12-29T00:11:57.555Z,85.60
2022-12-29T00:12:07.823Z,85.50
2022-12-29T00:12:18.090Z,85.50
2022-12-29T00:12:28.345Z,85.50
2022-12-29T00:12:38.621Z,85.50
2022-12-29T00:12:48.878Z,85.50
2022-12-29T00:12:59.153Z,85.50
2022-12-29T00:13:09.500Z,85.50
2022-12-29T00:13:19.725Z,85.39
2022-12-29T00:13:29.988Z,85.39
2022-12-29T00:13:40.264Z,85.39
2022-12-29T00:13:50.558Z,85.39
2022-12-29T00:14:00.799Z,85.39
2022-12-29T00:14:11.090Z,85.39
2022-12-29T00:14:25.913Z,85.50
2022-12-29T00:14:31.719Z,85.50
2022-12-29T00:14:42.007Z,85.50
2022-12-29T00:14:52.297Z,85.39
2022-12-29T00:15:02.549Z,85.39
2022-12-29T00:15:12.811Z,85.39
2022-12-29T00:15:23.093Z,85.30
2022-12-29T00:15:33.376Z,85.30
2022-12-29T00:15:43.775Z,85.30
2022-12-29T00:15:54.064Z,85.30
2022-12-29T00:16:04.399Z,85.30
2022-12-29T00:16:14.859Z,85.30
2022-12-29T00:16:24.976Z,85.30
2022-12-29T00:16:35.279Z,85.30
2022-12-29T00:16:45.525Z,85.39
2022-12-29T00:16:55.838Z,85.39
2022-12-29T00:17:06.070Z,85.39
2022-12-29T00:17:16.332Z,85.39
2022-12-29T00:17:26.676Z,85.39
2022-12-29T00:17:36.955Z,85.39
2022-12-29T00:17:47.219Z,85.39
2022-12-29T00:17:57.481Z,85.39
2022-12-29T00:18:07.772Z,85.39
2022-12-29T00:18:18.004Z,85.30
2022-12-29T00:18:28.307Z,85.30
2022-12-29T00:18:38.550Z,85.30
2022-12-29T00:18:48.840Z,85.30
2022-12-29T00:18:59.097Z,85.30
2022-12-29T00:19:09.368Z,85.30
2022-12-29T00:19:19.627Z,85.30
2022-12-29T00:19:29.897Z,85.30
2022-12-29T00:19:40.187Z,85.30
2022-12-29T00:19:50.454Z,85.30
2022-12-29T00:20:00.705Z,85.30
2022-12-29T00:20:10.968Z,85.30
2022-12-29T00:20:21.254Z,85.30
2022-12-29T00:20:31.499Z,85.30
2022-12-29T00:20:41.764Z,85.30
2022-12-29T00:20:52.034Z,85.30
2022-12-29T00:21:02.282Z,85.30
2022-12-29T00:21:12.563Z,85.30
2022-12-29T00:21:22.812Z,85.30
2022-12-29T00:21:33.091Z,85.30
2022-12-29T00:21:43.373Z,85.30
2022-12-29T00:21:53.645Z,85.30
2022-12-29T00:22:03.916Z,85.19
2022-12-29T00:22:14.183Z,85.19
2022-12-29T00:22:24.444Z,85.19
2022-12-29T00:22:34.723Z,85.19
2022-12-29T00:22:45.001Z,85.19
2022-12-29T00:22:55.315Z,85.09
2022-12-29T00:23:05.543Z,85.09
2022-12-29T00:23:15.819Z,85.09
2022-12-29T00:23:26.092Z,85.09
2022-12-29T00:23:36.343Z,85.09
2022-12-29T00:23:46.600Z,85.09
2022-12-29T00:23:56.882Z,85.05
2022-12-29T00:24:07.154Z,85.09
2022-12-29T00:24:17.431Z,85.09
2022-12-29T00:24:27.738Z,85.09
2022-12-29T00:24:38.006Z,85.09
2022-12-29T00:24:48.270Z,85.05
2022-12-29T00:24:58.553Z,84.99
2022-12-29T00:25:08.811Z,84.99
2022-12-29T00:25:19.075Z,84.95
2022-12-29T00:25:29.358Z,84.99
2022-12-29T00:25:39.626Z,84.99
2022-12-29T00:25:49.875Z,84.99
2022-12-29T00:26:00.140Z,84.99
2022-12-29T00:26:10.420Z,84.99
2022-12-29T00:26:20.679Z,84.95
2022-12-29T00:26:30.945Z,84.99
2022-12-29T00:26:41.217Z,84.99
2022-12-29T00:26:51.492Z,85.09
2022-12-29T00:27:01.748Z,85.09
2022-12-29T00:27:12.021Z,85.09
2022-12-29T00:27:22.300Z,85.09
2022-12-29T00:27:32.557Z,85.05
2022-12-29T00:27:42.808Z,85.09
2022-12-29T00:27:53.096Z,85.05
2022-12-29T00:28:07.498Z,85.05
2022-12-29T00:28:13.760Z,85.05
2022-12-29T00:28:24.029Z,85.05
2022-12-29T00:28:34.292Z,84.95
2022-12-29T00:28:44.599Z,84.95
2022-12-29T00:28:54.861Z,84.95
2022-12-29T00:29:05.189Z,84.95
2022-12-29T00:29:15.466Z,84.84
2022-12-29T00:29:25.730Z,84.84
2022-12-29T00:29:36.022Z,84.84
2022-12-29T00:29:46.286Z,84.84
2022-12-29T00:29:56.582Z,84.84
2022-12-29T00:30:06.844Z,84.84
2022-12-29T00:30:17.125Z,84.95
2022-12-29T00:30:27.451Z,84.95
2022-12-29T00:30:37.758Z,84.95
2022-12-29T00:30:48.012Z,84.95
2022-12-29T00:30:58.327Z,84.95
2022-12-29T00:31:08.642Z,84.95
2022-12-29T00:31:18.977Z,84.95
2022-12-29T00:31:29.274Z,84.95
2022-12-29T00:31:39.550Z,84.95
2022-12-29T00:31:49.925Z,84.84
2022-12-29T00:32:00.209Z,84.84
2022-12-29T00:32:10.455Z,84.84
2022-12-29T00:32:20.717Z,84.84
2022-12-29T00:32:31.004Z,84.84
2022-12-29T00:32:41.257Z,84.84
2022-12-29T00:32:51.523Z,84.84
2022-12-29T00:33:01.819Z,84.84
2022-12-29T00:33:12.053Z,84.84
2022-12-29T00:33:22.326Z,84.84
2022-12-29T00:33:32.619Z,84.84
2022-12-29T00:33:42.864Z,84.84
2022-12-29T00:33:53.155Z,84.84
2022-12-29T00:34:03.397Z,84.84
2022-12-29T00:34:13.657Z,84.84
2022-12-29T00:34:23.990Z,84.84
2022-12-29T00:34:34.253Z,84.84
2022-12-29T00:34:44.522Z,84.84
2022-12-29T00:34:54.799Z,84.84
2022-12-29T00:35:05.066Z,84.84
2022-12-29T00:35:15.326Z,84.84
2022-12-29T00:35:25.611Z,84.84
2022-12-29T00:35:35.864Z,84.84
2022-12-29T00:35:46.167Z,84.84
2022-12-29T00:35:56.396Z,84.84
2022-12-29T00:36:06.667Z,84.84
2022-12-29T00:36:17.087Z,84.74
2022-12-29T00:36:27.400Z,84.74
2022-12-29T00:36:37.639Z,84.74
2022-12-29T00:36:47.905Z,84.74
2022-12-29T00:36:58.196Z,84.74
2022-12-29T00:37:08.437Z,84.74
2022-12-29T00:37:18.707Z,84.74
2022-12-29T00:37:28.958Z,84.74
2022-12-29T00:37:39.270Z,84.74
2022-12-29T00:37:49.506Z,84.64
2022-12-29T00:37:59.792Z,84.64
2022-12-29T00:38:10.078Z,84.64
2022-12-29T00:38:20.402Z,84.64
2022-12-29T00:38:30.660Z,84.64
2022-12-29T00:38:40.927Z,84.64
2022-12-29T00:38:51.183Z,84.64
2022-12-29T00:39:01.472Z,84.64
2022-12-29T00:39:11.728Z,84.64
2022-12-29T00:39:21.995Z,84.64
2022-12-29T00:39:32.275Z,84.64
2022-12-29T00:39:42.539Z,84.64
2022-12-29T00:39:52.800Z,84.64
2022-12-29T00:40:03.070Z,84.64
2022-12-29T00:40:13.366Z,84.64
2022-12-29T00:40:23.592Z,84.64
2022-12-29T00:40:33.868Z,84.64
2022-12-29T00:40:44.140Z,84.64
2022-12-29T00:40:54.389Z,84.53
2022-12-29T00:41:04.660Z,84.53
2022-12-29T00:41:14.933Z,84.53
2022-12-29T00:41:25.199Z,84.53
2022-12-29T00:41:35.475Z,84.53
2022-12-29T00:41:45.720Z,84.53
2022-12-29T00:41:55.987Z,84.53
2022-12-29T00:42:06.247Z,84.53
2022-12-29T00:42:16.528Z,84.53
2022-12-29T00:42:26.936Z,84.53
2022-12-29T00:42:37.214Z,84.53
2022-12-29T00:42:47.477Z,84.64
2022-12-29T00:42:57.784Z,84.64
2022-12-29T00:43:08.034Z,84.64
2022-12-29T00:43:18.292Z,84.64
2022-12-29T00:43:28.584Z,84.64
2022-12-29T00:43:38.843Z,84.64
2022-12-29T00:43:49.110Z,84.64
2022-12-29T00:43:59.395Z,84.53
2022-12-29T00:44:09.673Z,84.53
2022-12-29T00:44:19.942Z,84.44
2022-12-29T00:44:30.216Z,84.44
2022-12-29T00:44:40.486Z,84.44
2022-12-29T00:44:50.742Z,84.44
2022-12-29T00:45:01.042Z,84.44
2022-12-29T00:45:11.316Z,84.33
2022-12-29T00:45:21.588Z,84.33
2022-12-29T00:45:31.858Z,84.33
2022-12-29T00:45:42.154Z,84.33
2022-12-29T00:45:52.424Z,84.33
2022-12-29T00:46:02.684Z,84.33
2022-12-29T00:46:19.444Z,84.33
2022-12-29T00:46:24.212Z,84.33
2022-12-29T00:46:33.485Z,84.33
2022-12-29T00:46:43.923Z,84.33
2022-12-29T00:46:54.279Z,84.33
2022-12-29T00:47:04.631Z,84.33
2022-12-29T00:47:15.024Z,84.33
2022-12-29T00:47:25.287Z,84.33
2022-12-29T00:47:35.578Z,84.33
2022-12-29T00:47:45.816Z,84.23
2022-12-29T00:47:56.082Z,84.23
2022-12-29T00:48:06.350Z,84.23
2022-12-29T00:48:16.779Z,84.23
2022-12-29T00:48:27.070Z,84.23
2022-12-29T00:48:37.317Z,84.23
2022-12-29T00:48:47.608Z,84.23
2022-12-29T00:48:57.917Z,84.23
2022-12-29T00:49:08.153Z,84.23
2022-12-29T00:49:18.408Z,84.23
2022-12-29T00:49:28.680Z,84.23
2022-12-29T00:49:38.959Z,84.23
2022-12-29T00:49:49.232Z,84.23
2022-12-29T00:49:59.501Z,84.23
2022-12-29T00:50:09.760Z,84.12
2022-12-29T00:50:20.029Z,84.12
2022-12-29T00:50:30.308Z,84.12
2022-12-29T00:50:40.567Z,84.12
2022-12-29T00:50:50.837Z,84.12
2022-12-29T00:51:01.109Z,84.12
2022-12-29T00:51:11.374Z,84.12
2022-12-29T00:51:21.634Z,84.12
2022-12-29T00:51:31.951Z,84.12
2022-12-29T00:51:42.201Z,84.12
2022-12-29T00:51:52.456Z,84.12
2022-12-29T00:52:02.748Z,84.12
2022-12-29T00:52:12.989Z,84.12
2022-12-29T00:52:23.262Z,84.12
2022-12-29T00:52:33.526Z,84.12
2022-12-29T00:52:43.782Z,84.12
2022-12-29T00:52:54.043Z,84.12
2022-12-29T00:53:04.317Z,84.12
2022-12-29T00:53:14.599Z,84.12
2022-12-29T00:53:24.848Z,84.12
2022-12-29T00:53:35.124Z,84.12
2022-12-29T00:53:48.118Z,84.03
2022-12-29T00:53:55.791Z,84.03
2022-12-29T00:54:06.062Z,84.03
2022-12-29T00:54:16.298Z,84.03
2022-12-29T00:54:26.745Z,84.03
2022-12-29T00:54:37.135Z,84.03
2022-12-29T00:54:47.396Z,84.03
2022-12-29T00:54:57.661Z,84.03
2022-12-29T00:55:07.941Z,84.03
2022-12-29T00:55:18.241Z,84.03
2022-12-29T00:55:28.457Z,84.03
2022-12-29T00:55:38.738Z,84.03
2022-12-29T00:55:49.145Z,84.03
2022-12-29T00:55:59.513Z,83.92
2022-12-29T00:56:09.886Z,83.92
2022-12-29T00:56:20.350Z,83.92
2022-12-29T00:56:30.415Z,83.92
2022-12-29T00:56:40.754Z,83.92
2022-12-29T00:56:51.109Z,83.92
2022-12-29T00:57:01.422Z,83.92
2022-12-29T00:57:11.662Z,83.92
2022-12-29T00:57:22.012Z,83.92
2022-12-29T00:57:32.298Z,83.82
2022-12-29T00:57:42.692Z,83.82
2022-12-29T00:57:52.915Z,83.82
2022-12-29T00:58:03.190Z,83.82
2022-12-29T00:58:13.438Z,83.82
2022-12-29T00:58:23.703Z,83.82
2022-12-29T00:58:33.990Z,83.82
2022-12-29T00:58:44.230Z,83.82
2022-12-29T00:58:54.493Z,83.72
2022-12-29T00:59:04.754Z,83.72
2022-12-29T00:59:15.024Z,83.72
2022-12-29T00:59:25.330Z,83.72
2022-12-29T00:59:35.576Z,83.82
2022-12-29T00:59:45.840Z,83.82
2022-12-29T00:59:56.097Z,83.82
2022-12-29T01:00:06.370Z,83.82
2022-12-29T01:00:16.763Z,83.82
2022-12-29T01:00:27.132Z,83.72
2022-12-29T01:00:37.401Z,83.72
2022-12-29T01:00:47.695Z,83.72
2022-12-29T01:00:57.985Z,83.72
2022-12-29T01:01:08.328Z,83.72
2022-12-29T01:01:18.733Z,83.61
2022-12-29T01:01:29.248Z,83.51
2022-12-29T01:01:39.430Z,83.41
2022-12-29T01:01:49.913Z,83.41
2022-12-29T01:02:00.284Z,83.31
2022-12-29T01:02:10.558Z,83.31
2022-12-29T01:02:20.783Z,83.31
2022-12-29T01:02:31.173Z,83.31
2022-12-29T01:02:41.628Z,83.31
2022-12-29T01:02:52.059Z,83.31
2022-12-29T01:03:02.282Z,83.20
2022-12-29T01:03:12.507Z,83.06
2022-12-29T01:03:22.860Z,83.10
2022-12-29T01:03:33.114Z,83.00
2022-12-29T01:03:43.373Z,83.00
2022-12-29T01:03:55.444Z,83.00
2022-12-29T01:04:05.002Z,83.00
2022-12-29T01:04:14.174Z,83.00
2022-12-29T01:04:24.548Z,82.90
2022-12-29T01:04:34.836Z,82.79
2022-12-29T01:04:45.100Z,82.79
2022-12-29T01:04:55.366Z,82.49
2022-12-29T01:05:05.629Z,82.39
2022-12-29T01:05:15.905Z,82.35
2022-12-29T01:05:26.179Z,82.24
2022-12-29T01:05:36.466Z,82.14
2022-12-29T01:05:46.709Z,82.04
2022-12-29T01:05:56.975Z,81.73
2022-12-29T01:06:07.233Z,81.52
2022-12-29T01:06:17.537Z,81.52
2022-12-29T01:06:27.967Z,81.22
2022-12-29T01:06:38.216Z,81.22
2022-12-29T01:06:48.502Z,81.32
2022-12-29T01:06:58.781Z,81.43
2022-12-29T01:07:09.001Z,81.52
2022-12-29T01:07:19.264Z,81.52
2022-12-29T01:07:29.526Z,81.43
2022-12-29T01:07:39.788Z,81.32
2022-12-29T01:07:50.059Z,81.22
2022-12-29T01:08:00.325Z,81.22
2022-12-29T01:08:10.585Z,81.32
2022-12-29T01:08:20.842Z,81.32
2022-12-29T01:08:31.102Z,81.43
2022-12-29T01:08:41.371Z,81.43
2022-12-29T01:08:51.660Z,81.52
2022-12-29T01:09:01.911Z,81.52
2022-12-29T01:09:12.165Z,81.63
2022-12-29T01:09:22.425Z,81.52
2022-12-29T01:09:32.690Z,81.52
2022-12-29T01:09:42.968Z,81.63
2022-12-29T01:09:53.227Z,81.73
2022-12-29T01:10:03.497Z,81.63
2022-12-29T01:10:13.768Z,81.63
2022-12-29T01:10:24.047Z,81.63
2022-12-29T01:10:34.317Z,81.73
2022-12-29T01:10:44.569Z,81.73
2022-12-29T01:10:54.822Z,81.73
2022-12-29T01:11:05.084Z,81.52
2022-12-29T01:11:15.345Z,81.22
2022-12-29T01:11:25.661Z,81.12
2022-12-29T01:11:35.885Z,81.12
2022-12-29T01:11:46.149Z,81.01
2022-12-29T01:11:56.409Z,80.91
2022-12-29T01:12:06.703Z,80.81
2022-12-29T01:12:16.900Z,80.71
2022-12-29T01:12:27.262Z,80.51
2022-12-29T01:12:37.524Z,80.40
2022-12-29T01:12:47.792Z,80.30
2022-12-29T01:12:58.051Z,80.40
2022-12-29T01:13:08.318Z,80.40
2022-12-29T01:13:18.590Z,80.51
2022-12-29T01:13:28.845Z,80.51
2022-12-29T01:13:39.133Z,80.60
2022-12-29T01:13:49.377Z,80.51
2022-12-29T01:13:59.630Z,80.30
2022-12-29T01:14:09.887Z,80.30
2022-12-29T01:14:20.148Z,80.30
2022-12-29T01:14:30.414Z,80.30
2022-12-29T01:14:40.730Z,80.40
2022-12-29T01:14:50.961Z,80.51
2022-12-29T01:15:01.229Z,80.51
2022-12-29T01:15:11.474Z,80.40
2022-12-29T01:15:21.754Z,80.30
2022-12-29T01:15:32.010Z,80.51
2022-12-29T01:15:42.265Z,80.60
2022-12-29T01:15:52.584Z,80.60
2022-12-29T01:16:02.909Z,80.60
2022-12-29T01:16:13.199Z,80.71
2022-12-29T01:16:23.497Z,80.71
2022-12-29T01:16:33.822Z,80.81
2022-12-29T01:16:44.107Z,80.81
2022-12-29T01:16:54.369Z,80.81
2022-12-29T01:17:04.641Z,80.71
2022-12-29T01:17:14.899Z,80.40
2022-12-29T01:17:25.162Z,80.30
2022-12-29T01:17:35.433Z,80.09
2022-12-29T01:17:45.685Z,79.99
2022-12-29T01:17:55.954Z,79.99
2022-12-29T01:18:06.233Z,79.99
2022-12-29T01:18:16.499Z,80.09
2022-12-29T01:18:26.866Z,80.19
2022-12-29T01:18:37.139Z,79.79
2022-12-29T01:18:47.396Z,79.68
2022-12-29T01:18:57.663Z,79.58
2022-12-29T01:19:07.948Z,79.27
2022-12-29T01:19:18.314Z,79.27
2022-12-29T01:19:28.538Z,79.38
2022-12-29T01:19:38.821Z,79.27
2022-12-29T01:19:49.080Z,79.27
2022-12-29T01:19:59.359Z,79.17
2022-12-29T01:20:09.632Z,79.17
2022-12-29T01:20:19.879Z,79.17
2022-12-29T01:20:30.140Z,79.17
2022-12-29T01:20:40.405Z,79.38
2022-12-29T01:20:50.675Z,79.38
2022-12-29T01:21:00.938Z,79.38
2022-12-29T01:21:11.203Z,79.27
2022-12-29T01:21:21.475Z,79.27
2022-12-29T01:21:31.732Z,79.27
2022-12-29T01:21:42.021Z,79.17
2022-12-29T01:21:52.266Z,79.07
2022-12-29T01:22:02.530Z,79.07
2022-12-29T01:22:12.779Z,79.07
2022-12-29T01:22:23.121Z,79.17
2022-12-29T01:22:33.380Z,79.17
2022-12-29T01:22:43.730Z,79.07
2022-12-29T01:22:53.968Z,78.97
2022-12-29T01:23:04.233Z,78.97
2022-12-29T01:23:14.490Z,79.07
2022-12-29T01:23:24.767Z,79.27
2022-12-29T01:23:35.068Z,79.38
2022-12-29T01:23:45.310Z,79.48
2022-12-29T01:23:55.571Z,79.58
2022-12-29T01:24:05.835Z,79.68
2022-12-29T01:24:16.095Z,79.68
2022-12-29T01:24:26.329Z,79.79
2022-12-29T01:24:36.596Z,79.79
2022-12-29T01:24:46.887Z,79.89
2022-12-29T01:24:57.149Z,79.89
2022-12-29T01:25:07.401Z,79.89
2022-12-29T01:25:17.663Z,79.99
2022-12-29T01:25:27.889Z,79.89
2022-12-29T01:25:38.151Z,79.58
2022-12-29T01:25:48.427Z,79.48
2022-12-29T01:25:58.682Z,79.58
2022-12-29T01:26:08.941Z,79.68
2022-12-29T01:26:19.205Z,79.79
2022-12-29T01:26:29.484Z,79.89
2022-12-29T01:26:39.735Z,79.89
2022-12-29T01:26:50.003Z,79.89
2022-12-29T01:27:00.261Z,79.89
2022-12-29T01:27:10.524Z,79.79
2022-12-29T01:27:20.791Z,79.68
2022-12-29T01:27:31.081Z,79.79
2022-12-29T01:27:41.314Z,79.79
2022-12-29T01:27:51.582Z,79.89
2022-12-29T01:28:01.862Z,79.79
2022-12-29T01:28:12.116Z,79.68
2022-12-29T01:28:26.138Z,79.68
2022-12-29T01:28:32.635Z,79.79
2022-12-29T01:28:42.871Z,79.79
2022-12-29T01:28:53.146Z,79.79
2022-12-29T01:29:03.400Z,79.79
2022-12-29T01:29:13.662Z,79.68
2022-12-29T01:29:24.026Z,79.68
2022-12-29T01:29:34.280Z,79.68
2022-12-29T01:29:44.537Z,79.68
2022-12-29T01:29:54.827Z,79.79
2022-12-29T01:30:05.079Z,79.79
2022-12-29T01:30:15.338Z,79.79
2022-12-29T01:30:25.608Z,79.58
2022-12-29T01:30:35.874Z,79.58
2022-12-29T01:30:46.141Z,79.58
2022-12-29T01:30:56.397Z,79.79
2022-12-29T01:31:06.701Z,79.99
2022-12-29T01:31:17.030Z,80.09
2022-12-29T01:31:27.362Z,80.09
2022-12-29T01:31:37.651Z,80.09
2022-12-29T01:31:48.014Z,79.89
2022-12-29T01:31:58.317Z,79.89
2022-12-29T01:32:08.565Z,79.99
2022-12-29T01:32:18.834Z,80.09
2022-12-29T01:32:29.115Z,80.09
2022-12-29T01:32:39.370Z,80.09
2022-12-29T01:32:49.635Z,80.09
2022-12-29T01:32:59.900Z,80.19
2022-12-29T01:33:10.164Z,80.19
2022-12-29T01:33:20.432Z,80.19
2022-12-29T01:33:30.694Z,80.19
2022-12-29T01:33:41.139Z,80.30
2022-12-29T01:33:51.217Z,80.30
2022-12-29T01:34:01.469Z,80.33
2022-12-29T01:34:11.742Z,80.30
2022-12-29T01:34:22.006Z,80.30
2022-12-29T01:34:32.260Z,80.33
2022-12-29T01:34:42.522Z,80.33
2022-12-29T01:34:52.823Z,80.13
2022-12-29T01:35:03.115Z,80.13
2022-12-29T01:35:13.357Z,80.19
2022-12-29T01:35:23.700Z,80.33
2022-12-29T01:35:33.963Z,80.40
2022-12-29T01:35:44.232Z,80.44
2022-12-29T01:35:54.489Z,80.44
2022-12-29T01:36:04.751Z,80.40
2022-12-29T01:36:15.021Z,80.44
2022-12-29T01:36:25.281Z,80.44
2022-12-29T01:36:35.548Z,80.44
2022-12-29T01:36:45.859Z,80.44
2022-12-29T01:36:56.097Z,80.44
2022-12-29T01:37:06.364Z,80.44
2022-12-29T01:37:16.656Z,80.19
2022-12-29T01:37:26.921Z,80.13
2022-12-29T01:37:37.178Z,80.13
2022-12-29T01:37:47.444Z,80.23
2022-12-29T01:37:57.738Z,79.93
2022-12-29T01:38:07.988Z,79.82
2022-12-29T01:38:18.249Z,79.93
2022-12-29T01:38:28.513Z,80.03
2022-12-29T01:38:38.780Z,80.03
2022-12-29T01:38:49.033Z,80.03
2022-12-29T01:38:59.314Z,79.93
2022-12-29T01:39:09.579Z,79.93
2022-12-29T01:39:19.830Z,80.03
2022-12-29T01:39:30.099Z,79.93
2022-12-29T01:39:40.358Z,79.82
2022-12-29T01:39:50.652Z,79.62
2022-12-29T01:40:00.905Z,79.41
2022-12-29T01:40:11.162Z,79.41
2022-12-29T01:40:21.437Z,79.41
2022-12-29T01:40:31.703Z,79.31
2022-12-29T01:40:42.031Z,79.21
2022-12-29T01:40:52.305Z,79.21
2022-12-29T01:41:02.578Z,79.11
2022-12-29T01:41:12.959Z,79.00
2022-12-29T01:41:23.198Z,78.90
2022-12-29T01:41:33.461Z,78.90
2022-12-29T01:41:43.872Z,78.80
2022-12-29T01:41:54.137Z,78.90
2022-12-29T01:42:04.397Z,79.11
2022-12-29T01:42:14.655Z,79.00
2022-12-29T01:42:24.942Z,79.11
2022-12-29T01:42:35.203Z,79.11
2022-12-29T01:42:45.467Z,79.00
2022-12-29T01:42:55.737Z,78.90
2022-12-29T01:43:05.979Z,78.90
2022-12-29T01:43:16.241Z,78.80
2022-12-29T01:43:26.512Z,78.90
2022-12-29T01:43:36.765Z,78.80
2022-12-29T01:43:47.033Z,78.76
2022-12-29T01:43:57.319Z,78.90
2022-12-29T01:44:07.558Z,78.90
2022-12-29T01:44:17.901Z,79.00
2022-12-29T01:44:28.139Z,79.00
2022-12-29T01:44:38.399Z,79.00
2022-12-29T01:44:48.660Z,78.80
2022-12-29T01:44:58.964Z,78.59
2022-12-29T01:45:09.197Z,78.66
2022-12-29T01:45:19.463Z,78.76
2022-12-29T01:45:29.778Z,78.90
2022-12-29T01:45:40.056Z,78.97
2022-12-29T01:45:50.325Z,79.11
2022-12-29T01:46:00.621Z,79.11
2022-12-29T01:46:10.909Z,79.17
2022-12-29T01:46:21.221Z,79.07
2022-12-29T01:46:31.515Z,79.11
2022-12-29T01:46:41.926Z,78.97
2022-12-29T01:46:52.171Z,79.07
2022-12-29T01:47:02.428Z,79.11
2022-12-29T01:47:12.693Z,79.21
2022-12-29T01:47:22.954Z,79.27
2022-12-29T01:47:33.261Z,79.31
2022-12-29T01:47:43.509Z,79.41
2022-12-29T01:47:53.797Z,79.27
2022-12-29T01:48:04.112Z,79.17
2022-12-29T01:48:14.470Z,79.07
2022-12-29T01:48:24.711Z,78.90
2022-12-29T01:48:34.996Z,78.86
2022-12-29T01:48:45.248Z,78.90
2022-12-29T01:48:55.522Z,78.90
2022-12-29T01:49:05.799Z,78.90
2022-12-29T01:49:16.072Z,79.00
2022-12-29T01:49:26.280Z,79.07
2022-12-29T01:49:36.562Z,79.11
2022-12-29T01:49:46.829Z,79.11
2022-12-29T01:49:57.142Z,79.11
2022-12-29T01:50:07.379Z,79.00
2022-12-29T01:50:17.635Z,79.00
2022-12-29T01:50:27.946Z,79.00
2022-12-29T01:50:38.199Z,79.11
2022-12-29T01:50:48.461Z,79.11
2022-12-29T01:50:58.740Z,79.11
2022-12-29T01:51:08.994Z,79.11
2022-12-29T01:51:19.248Z,78.90
2022-12-29T01:51:29.519Z,78.90
2022-12-29T01:51:39.791Z,78.90
2022-12-29T01:51:50.055Z,79.00
2022-12-29T01:52:00.315Z,79.00
2022-12-29T01:52:10.579Z,79.00
2022-12-29T01:52:20.837Z,79.00
2022-12-29T01:52:31.126Z,78.90
2022-12-29T01:52:41.392Z,78.90
2022-12-29T01:52:51.635Z,78.90
2022-12-29T01:53:01.899Z,79.00
2022-12-29T01:53:12.166Z,79.00
2022-12-29T01:53:22.429Z,79.11
2022-12-29T01:53:32.687Z,79.11
2022-12-29T01:53:42.945Z,79.07
2022-12-29T01:53:53.198Z,79.11
2022-12-29T01:54:03.466Z,79.00
2022-12-29T01:54:13.722Z,78.90
2022-12-29T01:54:23.993Z,78.90
2022-12-29T01:54:34.254Z,79.11
2022-12-29T01:54:44.550Z,79.11
2022-12-29T01:54:54.804Z,79.00
2022-12-29T01:55:05.082Z,78.80
2022-12-29T01:55:15.379Z,78.59
2022-12-29T01:55:25.618Z,78.49
2022-12-29T01:55:35.880Z,78.59
2022-12-29T01:55:46.140Z,78.59
2022-12-29T01:55:56.414Z,78.49
2022-12-29T01:56:06.670Z,78.59
2022-12-29T01:56:16.933Z,78.70
2022-12-29T01:56:27.195Z,78.70
2022-12-29T01:56:37.487Z,78.59
2022-12-29T01:56:47.722Z,78.49
2022-12-29T01:56:57.984Z,78.59
2022-12-29T01:57:08.249Z,78.59
2022-12-29T01:57:18.509Z,78.70
2022-12-29T01:57:28.778Z,78.70
2022-12-29T01:57:39.036Z,78.80
2022-12-29T01:57:49.305Z,78.80
2022-12-29T01:57:59.582Z,78.70
2022-12-29T01:58:09.868Z,78.59
2022-12-29T01:58:20.116Z,78.59
2022-12-29T01:58:30.379Z,78.59
2022-12-29T01:58:40.644Z,78.70
2022-12-29T01:58:50.925Z,78.80
2022-12-29T01:59:01.180Z,78.80
2022-12-29T01:59:11.433Z,78.90
2022-12-29T01:59:21.712Z,78.90
2022-12-29T01:59:32.001Z,79.00
2022-12-29T01:59:42.233Z,79.00
2022-12-29T01:59:52.502Z,79.00
2022-12-29T02:00:02.778Z,78.80
2022-12-29T02:00:13.041Z,78.80
2022-12-29T02:00:23.305Z,78.90
2022-12-29T02:00:33.687Z,78.90
2022-12-29T02:00:44.011Z,78.90
2022-12-29T02:00:54.282Z,79.00
2022-12-29T02:01:04.594Z,79.00
2022-12-29T02:01:14.868Z,79.11
2022-12-29T02:01:25.244Z,79.11
2022-12-29T02:01:35.508Z,79.11
2022-12-29T02:01:45.804Z,79.11
2022-12-29T02:01:56.023Z,79.11
2022-12-29T02:02:06.335Z,79.11
2022-12-29T02:02:16.651Z,79.11
2022-12-29T02:02:26.829Z,79.11
2022-12-29T02:02:37.216Z,79.21
2022-12-29T02:02:47.421Z,79.21
2022-12-29T02:02:57.773Z,79.21
2022-12-29T02:03:08.064Z,79.21
2022-12-29T02:03:18.386Z,79.31
2022-12-29T02:03:28.680Z,79.31
2022-12-29T02:03:38.969Z,79.31
2022-12-29T02:03:49.198Z,79.31
2022-12-29T02:03:59.471Z,79.31
2022-12-29T02:04:09.728Z,79.31
2022-12-29T02:04:20.014Z,79.31
2022-12-29T02:04:30.253Z,79.41
2022-12-29T02:04:40.514Z,79.41
2022-12-29T02:04:50.781Z,79.41
2022-12-29T02:05:04.397Z,79.52
2022-12-29T02:05:11.294Z,79.41
2022-12-29T02:05:21.564Z,79.41
2022-12-29T02:05:31.823Z,79.31
2022-12-29T02:05:42.090Z,79.31
2022-12-29T02:05:52.361Z,79.31
2022-12-29T02:06:02.660Z,79.41
2022-12-29T02:06:12.962Z,79.52
2022-12-29T02:06:23.236Z,79.52
2022-12-29T02:06:33.687Z,79.52
2022-12-29T02:06:43.797Z,79.52
2022-12-29T02:06:54.037Z,79.52
2022-12-29T02:07:04.329Z,79.41
2022-12-29T02:07:14.610Z,79.41
2022-12-29T02:07:24.837Z,79.41
2022-12-29T02:07:35.100Z,79.41
2022-12-29T02:07:45.361Z,79.52
2022-12-29T02:07:55.646Z,79.52
2022-12-29T02:08:05.890Z,79.52
2022-12-29T02:08:16.152Z,79.62
2022-12-29T02:08:26.413Z,79.52
2022-12-29T02:08:36.673Z,79.52
2022-12-29T02:08:46.944Z,79.41
2022-12-29T02:08:57.214Z,79.41
2022-12-29T02:09:07.496Z,79.41
2022-12-29T02:09:17.731Z,79.52
2022-12-29T02:09:27.959Z,79.52
2022-12-29T02:09:38.226Z,79.52
2022-12-29T02:09:48.490Z,79.62
2022-12-29T02:09:58.747Z,79.62
2022-12-29T02:10:09.031Z,79.72
2022-12-29T02:10:19.306Z,79.72
2022-12-29T02:10:29.555Z,79.72
2022-12-29T02:10:39.805Z,79.72
2022-12-29T02:10:50.065Z,79.72
2022-12-29T02:11:00.332Z,79.72
2022-12-29T02:11:10.607Z,79.72
2022-12-29T02:11:20.885Z,79.72
2022-12-29T02:11:31.137Z,79.82
2022-12-29T02:11:41.391Z,79.82
2022-12-29T02:11:51.683Z,79.82
2022-12-29T02:12:01.957Z,79.82
2022-12-29T02:12:12.178Z,79.82
2022-12-29T02:12:22.451Z,79.82